Time;durP1;ratioP1;P1;durP2;ratioP2;P2;SDS_P1;SDS_P2;PMS_P1;PMS_P2;Temp;Humidity;BMP_temperature;BMP_pressure;BME280_temperature;BME280_humidity;BME280_pressure;Samples;Min_cycle;Max_cycle;Signal;HPM_P1;HPM_P2
2022/04/16 00:01:57;;;;;;;26.60;17.90;;;;;;;10.58;nan;-24112.69;5033908;28;20176;-73
2022/04/16 00:04:23;;;;;;;30.93;18.80;;;;;;;10.76;nan;-24117.63;5034273;28;20575;-72
2022/04/16 00:06:48;;;;;;;31.17;20.13;;;;;;;10.46;nan;-24109.16;5034065;28;20203;-73
2022/04/16 00:09:14;;;;;;;34.47;19.83;;;;;;;10.52;nan;-24110.84;5033964;28;20187;-73
2022/04/16 00:11:39;;;;;;;26.60;18.00;;;;;;;10.46;nan;-24109.16;5033790;28;20255;-73
2022/04/16 00:14:05;;;;;;;28.90;17.97;;;;;;;10.39;nan;-24107.31;5033730;28;20210;-72
2022/04/16 00:16:31;;;;;;;30.30;18.63;;;;;;;10.50;nan;-24110.28;5033765;28;20176;-72
2022/04/16 00:18:57;;;;;;;29.47;18.60;;;;;;;10.85;nan;-24120.16;5033679;28;20181;-72
2022/04/16 00:21:23;;;;;;;31.33;20.23;;;;;;;10.39;nan;-24107.31;5033928;28;20171;-72
2022/04/16 00:23:49;;;;;;;28.47;17.77;;;;;;;10.08;nan;-24098.72;5033978;28;20175;-73
2022/04/16 00:26:14;;;;;;;25.47;15.60;;;;;;;9.99;nan;-24096.16;5033581;28;20182;-73
2022/04/16 00:28:39;;;;;;;26.03;14.47;;;;;;;9.80;nan;-24090.81;5033583;28;20635;-73
2022/04/16 00:31:05;;;;;;;27.57;14.70;;;;;;;9.27;nan;-24076.09;5035231;28;20205;-71
2022/04/16 00:33:31;;;;;;;23.60;14.97;;;;;;;9.57;nan;-24084.44;5035789;28;20203;-73
2022/04/16 00:35:57;;;;;;;26.93;14.40;;;;;;;9.45;nan;-24080.91;5040752;28;20623;-71
2022/04/16 00:38:22;;;;;;;22.50;14.20;;;;;;;9.46;nan;-24081.19;5058842;28;20337;-71
2022/04/16 00:40:48;;;;;;;19.87;13.67;;;;;;;9.47;nan;-24081.63;5058842;28;20178;-72
2022/04/16 00:43:24;;;;;;;19.90;13.50;;;;;;;9.95;nan;-24095.03;5035450;28;20241;-72
2022/04/16 00:45:50;;;;;;;20.73;13.67;;;;;;;9.74;nan;-24089.09;5032454;28;20646;-72
2022/04/16 00:48:16;;;;;;;19.77;12.43;;;;;;;10.06;nan;-24098.00;5033335;28;20206;-73
2022/04/16 00:50:42;;;;;;;18.33;12.63;;;;;;;9.86;nan;-24092.34;5033123;28;20639;-72
2022/04/16 00:53:08;;;;;;;21.23;13.37;;;;;;;9.54;nan;-24083.47;5033351;28;20334;-73
2022/04/16 00:55:37;;;;;;;22.90;13.60;;;;;;;9.47;nan;-24081.63;5032095;28;20195;-73
2022/04/16 00:58:02;;;;;;;18.97;13.43;;;;;;;9.91;nan;-24093.91;5032210;28;20237;-73
2022/04/16 01:00:33;;;;;;;23.20;13.23;;;;;;;9.86;nan;-24092.34;5032735;28;20643;-72
2022/04/16 01:02:59;;;;;;;20.60;13.13;;;;;;;9.83;nan;-24091.66;5033780;28;20250;-74
2022/04/16 01:05:25;;;;;;;20.70;13.80;;;;;;;9.84;nan;-24091.78;5032592;28;20179;-72
2022/04/16 01:07:53;;;;;;;19.90;12.67;;;;;;;9.42;nan;-24080.06;5030606;28;20190;-71
2022/04/16 01:10:21;;;;;;;27.13;14.07;;;;;;;9.84;nan;-24091.94;5061292;28;20195;-73
2022/04/16 01:12:48;;;;;;;19.70;13.70;;;;;;;9.55;nan;-24083.75;5031339;28;20183;-72
2022/04/16 01:15:13;;;;;;;24.73;14.00;;;;;;;9.15;nan;-24072.56;5030708;28;20223;-72
2022/04/16 01:17:40;;;;;;;22.90;13.60;;;;;;;9.47;nan;-24081.47;5028671;28;20182;-72
2022/04/16 01:20:06;;;;;;;20.73;13.93;;;;;;;9.27;nan;-24076.09;5031080;28;20183;-71
2022/04/16 01:22:32;;;;;;;23.37;14.97;;;;;;;9.09;nan;-24070.88;5030654;28;20187;-72
2022/04/16 01:25:00;;;;;;;20.03;13.53;;;;;;;9.05;nan;-24069.88;5030825;28;20570;-72
2022/04/16 01:27:25;;;;;;;21.10;12.27;;;;;;;9.35;nan;-24078.09;5028879;28;20183;-72
2022/04/16 01:29:53;;;;;;;22.00;12.77;;;;;;;9.10;nan;-24071.16;5029001;28;20768;-71
2022/04/16 01:32:19;;;;;;;18.10;12.80;;;;;;;9.61;nan;-24085.44;5031230;28;20175;-71
2022/04/16 01:34:44;;;;;;;19.20;12.93;;;;;;;9.60;nan;-24085.28;5031664;28;20700;-73
2022/04/16 01:37:10;;;;;;;19.50;12.80;;;;;;;9.51;nan;-24082.75;5028557;28;20183;-72
2022/04/16 01:39:35;;;;;;;18.33;12.73;;;;;;;9.54;nan;-24083.59;5029989;28;20187;-73
2022/04/16 01:42:00;;;;;;;18.17;13.00;;;;;;;9.55;nan;-24083.75;5028811;28;20179;-73
2022/04/16 01:44:29;;;;;;;20.77;12.97;;;;;;;9.43;nan;-24080.34;5029132;28;20172;-72
2022/04/16 01:46:54;;;;;;;16.80;13.07;;;;;;;9.51;nan;-24082.75;5027275;28;20271;-73
2022/04/16 01:49:20;;;;;;;19.40;13.13;;;;;;;9.30;nan;-24076.94;5030191;28;20262;-74
2022/04/16 01:51:46;;;;;;;21.63;13.20;;;;;;;9.28;nan;-24076.25;5029885;28;20522;-73
2022/04/16 01:54:12;;;;;;;18.57;13.63;;;;;;;9.09;nan;-24070.88;5030160;28;20220;-73
2022/04/16 01:56:37;;;;;;;18.77;13.10;;;;;;;9.09;nan;-24070.88;5028359;28;20194;-72
2022/04/16 01:59:02;;;;;;;18.10;13.00;;;;;;;9.17;nan;-24073.28;5026086;28;20192;-72
2022/04/16 02:01:28;;;;;;;15.93;12.77;;;;;;;9.44;nan;-24080.63;5030087;28;20175;-72
2022/04/16 02:03:54;;;;;;;19.23;13.17;;;;;;;8.93;nan;-24066.50;5028349;28;20186;-73
2022/04/16 02:06:19;;;;;;;18.27;13.37;;;;;;;8.95;nan;-24067.06;5031045;28;20198;-73
2022/04/16 02:08:46;;;;;;;19.83;13.27;;;;;;;9.29;nan;-24076.53;5030600;28;20556;-73
2022/04/16 02:11:11;;;;;;;18.60;13.37;;;;;;;8.95;nan;-24066.91;5030902;28;20180;-72
2022/04/16 02:13:38;;;;;;;23.70;13.83;;;;;;;8.95;nan;-24067.06;5029863;28;20288;-72
2022/04/16 02:16:04;;;;;;;20.10;13.50;;;;;;;8.97;nan;-24067.47;5030585;28;20267;-72
2022/04/16 02:18:29;;;;;;;22.93;13.53;;;;;;;9.25;nan;-24075.53;5030332;28;20182;-72
2022/04/16 02:20:54;;;;;;;20.43;13.53;;;;;;;9.40;nan;-24079.63;5030437;28;20668;-72
2022/04/16 02:23:20;;;;;;;26.57;13.73;;;;;;;9.00;nan;-24068.47;5030610;28;20702;-73
2022/04/16 02:25:45;;;;;;;23.57;13.87;;;;;;;9.57;nan;-24084.31;5030333;28;20693;-72
2022/04/16 02:28:11;;;;;;;22.17;13.47;;;;;;;9.40;nan;-24079.50;5027759;28;20183;-73
2022/04/16 02:30:37;;;;;;;28.13;13.90;;;;;;;9.05;nan;-24069.88;5027186;28;20182;-73
2022/04/16 02:33:03;;;;;;;19.47;13.60;;;;;;;8.98;nan;-24067.75;5029636;28;20542;-72
2022/04/16 02:35:29;;;;;;;21.10;14.07;;;;;;;9.38;nan;-24079.06;5030894;28;20210;-72
2022/04/16 02:37:55;;;;;;;20.53;14.20;;;;;;;9.22;nan;-24074.56;5030189;28;20189;-73
2022/04/16 02:40:21;;;;;;;20.20;14.93;;;;;;;9.08;nan;-24070.59;5029400;28;20551;-73
2022/04/16 02:42:46;;;;;;;24.33;14.40;;;;;;;8.98;nan;-24067.75;5030314;28;20214;-72
2022/04/16 02:47:59;;;;;;;22.63;14.23;;;;;;;8.59;nan;-24057.00;5030617;28;20190;-72
2022/04/16 02:50:25;;;;;;;22.00;13.93;;;;;;;8.75;nan;-24061.53;5030425;28;20219;-72
2022/04/16 02:52:56;;;;;;;24.00;14.07;;;;;;;8.60;nan;-24057.28;5029478;28;20235;-73
2022/04/16 02:55:22;;;;;;;20.63;12.97;;;;;;;8.83;nan;-24063.81;5030121;28;20199;-72
2022/04/16 02:57:51;;;;;;;19.50;13.60;;;;;;;8.62;nan;-24057.88;5027675;28;20210;-72
2022/04/16 03:00:19;;;;;;;22.37;13.30;;;;;;;8.72;nan;-24060.69;5027416;28;20187;-72
2022/04/16 03:02:45;;;;;;;17.90;12.37;;;;;;;8.27;nan;-24048.09;5029787;28;20266;-72
2022/04/16 03:05:11;;;;;;;17.83;11.90;;;;;;;8.30;nan;-24048.81;5029039;28;20271;-73
2022/04/16 03:07:37;;;;;;;18.40;12.50;;;;;;;8.43;nan;-24052.47;5030174;28;20553;-72
2022/04/16 03:10:04;;;;;;;16.50;11.73;;;;;;;8.24;nan;-24047.25;5033477;28;20214;-72
2022/04/16 03:12:55;;;;;;;17.23;10.87;;;;;;;8.28;nan;-24048.22;5032175;28;20716;-72
2022/04/16 03:18:07;;;;;;;18.37;12.20;;;;;;;8.32;nan;-24049.50;5033220;28;20182;-72
2022/04/16 03:20:33;;;;;;;15.40;10.47;;;;;;;8.33;nan;-24049.78;5033249;28;20190;-73
2022/04/16 03:22:59;;;;;;;16.67;11.57;;;;;;;8.08;nan;-24042.56;5031749;28;20189;-73
2022/04/16 03:25:28;;;;;;;19.57;12.43;;;;;;;7.99;nan;-24040.31;5033489;28;20198;-73
2022/04/16 03:27:53;;;;;;;15.50;10.50;;;;;;;8.03;nan;-24041.16;5049312;28;20270;-73
2022/04/16 03:30:19;;;;;;;15.90;10.70;;;;;;;8.35;nan;-24050.22;5033773;28;20270;-73
2022/04/16 03:32:47;;;;;;;16.00;11.40;;;;;;;8.63;nan;-24058.16;5033636;28;20282;-72
2022/04/16 03:35:13;;;;;;;19.13;11.23;;;;;;;8.72;nan;-24060.69;5030870;28;20214;-71
2022/04/16 03:37:39;;;;;;;23.10;11.67;;;;;;;8.23;nan;-24046.97;5030828;28;20191;-73
2022/04/16 03:40:06;;;;;;;21.03;12.03;;;;;;;8.22;nan;-24046.69;5031981;28;20529;-73
2022/04/16 03:42:31;;;;;;;17.73;11.13;;;;;;;8.17;nan;-24045.13;5033532;28;20650;-71
2022/04/16 03:44:58;;;;;;;15.83;10.77;;;;;;;8.78;nan;-24062.25;5033549;28;20286;-72
2022/04/16 03:47:24;;;;;;;17.20;11.10;;;;;;;8.96;nan;-24067.34;5032413;28;20825;-73
2022/04/16 03:49:51;;;;;;;17.87;11.57;;;;;;;8.91;nan;-24065.94;5033946;28;20182;-72
2022/04/16 03:52:17;;;;;;;15.37;10.93;;;;;;;8.77;nan;-24061.97;5032934;28;20289;-71
2022/04/16 04:00:11;;;;;;;16.80;9.80;;;;;;;10.48;nan;-24109.88;5032114;28;20246;-72
2022/04/16 04:02:38;;;;;;;14.80;9.83;;;;;;;11.16;nan;-24128.75;5032604;28;20183;-72
2022/04/16 04:05:04;;;;;;;18.13;10.47;;;;;;;11.70;nan;-24143.69;5031889;28;20175;-73
2022/04/16 04:07:30;;;;;;;17.50;10.33;;;;;;;12.49;nan;-24165.66;5032054;28;20712;-71
2022/04/16 04:09:55;;;;;;;14.33;9.70;;;;;;;12.94;nan;-24178.31;5033088;28;20231;-72
2022/04/16 04:12:21;;;;;;;12.80;9.73;;;;;;;13.21;nan;-24185.91;5031125;28;20609;-72
2022/04/16 04:14:47;;;;;;;12.35;9.23;;;;;;;13.54;nan;-24194.91;5030712;28;20207;-72
2022/04/16 04:17:15;;;;;;;11.07;8.60;;;;;;;13.79;nan;-24201.91;5045198;28;20553;-71
2022/04/16 04:19:42;;;;;;;13.65;9.80;;;;;;;13.45;nan;-24192.38;5029098;28;20206;-72
2022/04/16 04:22:13;;;;;;;13.63;8.95;;;;;;;13.95;nan;-24206.41;5030448;28;20274;-73
2022/04/16 04:24:39;;;;;;;10.93;8.80;;;;;;;13.65;nan;-24198.00;5026837;28;20702;-72
2022/04/16 04:27:06;;;;;;;13.57;8.40;;;;;;;13.26;nan;-24187.31;5043405;28;20244;-70
2022/04/16 04:29:32;;;;;;;11.75;8.50;;;;;;;12.77;nan;-24173.53;5026825;28;20194;-72
2022/04/16 04:31:58;;;;;;;10.75;8.10;;;;;;;12.29;nan;-24160.19;5024739;28;20179;-73
2022/04/16 04:34:24;;;;;;;9.88;8.25;;;;;;;12.62;nan;-24169.31;5024379;28;20579;-72
2022/04/16 04:36:50;;;;;;;11.63;8.70;;;;;;;13.00;nan;-24179.88;5030240;28;20662;-72
2022/04/16 04:39:15;;;;;;;12.65;8.77;;;;;;;13.16;nan;-24184.50;5028531;28;20198;-73
2022/04/16 04:41:44;;;;;;;13.82;9.40;;;;;;;13.24;nan;-24186.75;5029312;28;20186;-74
2022/04/16 04:44:13;;;;;;;18.50;10.02;;;;;;;13.35;nan;-24189.72;5029868;28;20184;-72
2022/04/16 04:46:40;;;;;;;17.40;9.18;;;;;;;12.92;nan;-24177.75;5028634;28;20175;-72
2022/04/16 04:49:08;;;;;;;14.70;9.45;;;;;;;12.84;nan;-24175.50;5028429;28;20538;-73
2022/04/16 04:51:40;;;;;;;16.48;8.48;;;;;;;13.25;nan;-24187.03;5030678;28;20183;-73
2022/04/16 04:54:07;;;;;;;15.68;9.40;;;;;;;12.87;nan;-24176.22;5030653;28;20234;-73
2022/04/16 04:56:33;;;;;;;16.25;9.50;;;;;;;13.20;nan;-24185.63;5030666;28;20256;-72
2022/04/16 04:58:59;;;;;;;17.05;10.05;;;;;;;12.42;nan;-24163.69;5030303;28;20215;-72
2022/04/16 05:01:25;;;;;;;17.27;9.98;;;;;;;12.78;nan;-24173.81;5030601;28;20405;-72
2022/04/16 05:03:50;;;;;;;20.00;10.57;;;;;;;12.72;nan;-24172.28;5025458;28;20191;-73
2022/04/16 05:06:16;;;;;;;15.50;10.85;;;;;;;13.05;nan;-24181.41;5030770;28;20179;-72
2022/04/16 05:08:43;;;;;;;21.70;11.52;;;;;;;12.74;nan;-24172.69;5030187;28;20179;-71
2022/04/16 05:11:09;;;;;;;19.70;11.80;;;;;;;13.25;nan;-24186.91;5029414;28;20716;-73
2022/04/16 05:13:34;;;;;;;19.13;11.85;;;;;;;12.88;nan;-24176.63;5030378;28;20199;-72
2022/04/16 05:16:00;;;;;;;17.23;12.20;;;;;;;13.20;nan;-24185.50;5030143;28;20179;-72
2022/04/16 05:18:26;;;;;;;19.23;11.25;;;;;;;13.17;nan;-24184.78;5027318;28;20186;-72
2022/04/16 05:20:51;;;;;;;24.35;13.07;;;;;;;12.99;nan;-24179.72;5029729;28;20263;-72
2022/04/16 05:23:17;;;;;;;21.35;12.32;;;;;;;13.11;nan;-24182.97;5030669;28;20968;-73
2022/04/16 05:25:43;;;;;;;13.63;9.95;;;;;;;13.15;nan;-24184.22;5022975;28;20601;-72
2022/04/16 05:28:09;;;;;;;13.05;10.30;;;;;;;12.97;nan;-24179.16;5026873;28;20270;-72
2022/04/16 05:30:44;;;;;;;19.90;11.45;;;;;;;13.10;nan;-24182.81;5024646;28;20191;-72
2022/04/16 05:34:18;;;;;;;14.48;10.80;;;;;;;12.85;nan;-24175.78;5026060;28;20201;-73
2022/04/16 05:36:03;;;;;;;19.67;10.50;;;;;;;12.88;nan;-24176.63;5027945;28;20269;-71
2022/04/16 05:38:29;;;;;;;15.95;9.70;;;;;;;13.56;nan;-24195.59;5024146;28;20206;-71
2022/04/16 05:40:55;;;;;;;12.82;9.65;;;;;;;13.20;nan;-24185.63;5027446;28;21259;-72
2022/04/16 05:43:20;;;;;;;13.10;8.30;;;;;;;13.54;nan;-24194.91;5027437;28;20183;-71
2022/04/16 05:45:46;;;;;;;13.25;8.70;;;;;;;13.63;nan;-24197.56;5047406;28;20202;-71
2022/04/16 05:48:11;;;;;;;12.70;8.40;;;;;;;13.98;nan;-24207.13;5051001;28;20198;-72
2022/04/16 05:50:37;;;;;;;12.20;8.00;;;;;;;14.39;nan;-24218.47;5037242;28;20190;-71
2022/04/16 05:53:06;;;;;;;12.75;8.80;;;;;;;14.63;nan;-24225.22;5025092;28;20239;-72
2022/04/16 05:55:31;;;;;;;14.27;8.82;;;;;;;14.48;nan;-24221.00;5022749;28;20203;-72
2022/04/16 05:57:57;;;;;;;11.90;9.02;;;;;;;14.67;nan;-24226.34;5024858;28;20863;-72
2022/04/16 06:00:22;;;;;;;12.13;8.23;;;;;;;14.92;nan;-24233.34;5025503;28;20263;-72
2022/04/16 06:02:48;;;;;;;11.48;8.43;;;;;;;14.96;nan;-24234.31;5022453;28;20218;-71
2022/04/16 06:05:13;;;;;;;11.80;8.48;;;;;;;14.59;nan;-24224.22;5019969;28;20183;-71
2022/04/16 06:07:39;;;;;;;12.48;7.97;;;;;;;14.94;nan;-24233.91;5023443;28;20202;-71
2022/04/16 06:10:05;;;;;;;11.70;7.60;;;;;;;15.47;nan;-24248.47;5022858;28;20191;-70
2022/04/16 06:12:31;;;;;;;12.05;7.40;;;;;;;16.01;nan;-24263.31;5023628;28;20257;-70
2022/04/16 06:14:56;;;;;;;14.30;8.10;;;;;;;16.07;nan;-24265.13;5027633;28;20247;-70
2022/04/16 06:17:21;;;;;;;12.25;7.63;;;;;;;15.89;nan;-24260.09;5026387;28;20191;-70
2022/04/16 06:19:47;;;;;;;13.52;7.78;;;;;;;15.75;nan;-24256.31;5027640;28;20616;-70
2022/04/16 06:22:12;;;;;;;13.10;8.13;;;;;;;15.84;nan;-24258.84;5028827;28;20187;-70
2022/04/16 06:24:42;;;;;;;10.02;7.85;;;;;;;15.62;nan;-24252.69;5027615;28;20176;-71
2022/04/16 06:27:08;;;;;;;16.98;7.85;;;;;;;15.88;nan;-24259.94;5025394;28;20191;-71
2022/04/16 06:29:34;;;;;;;11.88;7.30;;;;;;;16.23;nan;-24269.59;5025535;28;20777;-71
2022/04/16 06:31:59;;;;;;;10.95;6.90;;;;;;;16.37;nan;-24273.25;5030008;28;20273;-70
2022/04/16 06:34:27;;;;;;;11.15;7.65;;;;;;;16.60;nan;-24279.81;5029505;28;20226;-70
2022/04/16 06:36:52;;;;;;;14.65;7.72;;;;;;;16.72;nan;-24283.03;5030477;28;20183;-70
2022/04/16 06:39:18;;;;;;;15.00;7.07;;;;;;;17.07;nan;-24292.81;5029224;28;20183;-70
2022/04/16 06:41:44;;;;;;;13.68;7.35;;;;;;;17.49;nan;-24304.38;5028713;28;20186;-71
2022/04/16 06:44:09;;;;;;;20.63;9.05;;;;;;;17.46;nan;-24303.56;5035229;28;20185;-71
2022/04/16 06:46:35;;;;;;;18.15;7.65;;;;;;;18.04;nan;-24319.59;5033944;28;20183;-70
2022/04/16 06:49:00;;;;;;;15.48;7.10;;;;;;;18.36;nan;-24328.22;5031548;28;20195;-70
2022/04/16 06:51:25;;;;;;;16.92;7.40;;;;;;;18.42;nan;-24329.91;5034330;28;20211;-70
2022/04/16 06:53:51;;;;;;;14.25;7.50;;;;;;;18.62;nan;-24335.47;5033591;28;20686;-69
2022/04/16 06:56:16;;;;;;;10.90;7.40;;;;;;;18.61;nan;-24335.19;5030539;28;20186;-70
2022/04/16 06:58:42;;;;;;;13.70;6.90;;;;;;;18.85;nan;-24341.75;5030058;28;20182;-70
2022/04/16 07:01:07;;;;;;;22.23;6.72;;;;;;;18.86;nan;-24342.03;5032769;28;20186;-70
2022/04/16 07:03:33;;;;;;;17.73;6.95;;;;;;;18.69;nan;-24337.44;5033314;28;20185;-70
2022/04/16 07:05:58;;;;;;;11.35;6.75;;;;;;;18.86;nan;-24342.03;5030684;28;20187;-70
2022/04/16 07:08:25;;;;;;;11.50;6.75;;;;;;;19.06;nan;-24347.59;5031311;28;20217;-70
2022/04/16 07:10:50;;;;;;;16.23;7.45;;;;;;;19.39;nan;-24356.78;5034004;28;20183;-70
2022/04/16 07:13:15;;;;;;;10.27;6.97;;;;;;;19.53;nan;-24360.53;5032190;28;20253;-71
2022/04/16 07:15:41;;;;;;;12.77;6.50;;;;;;;19.53;nan;-24360.53;5031824;28;20218;-71
2022/04/16 07:18:07;;;;;;;13.13;7.60;;;;;;;20.16;nan;-24377.91;5030489;28;20186;-71
2022/04/16 07:20:33;;;;;;;14.27;6.57;;;;;;;19.94;nan;-24371.66;5046809;28;20550;-72
2022/04/16 07:22:59;;;;;;;8.73;6.57;;;;;;;19.95;nan;-24372.06;5032359;28;20184;-71
2022/04/16 07:25:25;;;;;;;11.98;6.38;;;;;;;20.16;nan;-24377.75;5032443;28;20179;-71
2022/04/16 07:27:51;;;;;;;16.60;7.13;;;;;;;20.50;nan;-24387.06;5033112;28;20175;-71
2022/04/16 07:30:17;;;;;;;12.02;6.47;;;;;;;20.36;nan;-24383.31;5033020;28;20241;-71
2022/04/16 07:32:42;;;;;;;12.27;6.70;;;;;;;20.60;nan;-24389.97;5031898;28;20249;-71
2022/04/16 07:35:08;;;;;;;14.80;7.25;;;;;;;20.44;nan;-24385.41;5031728;28;20689;-72
2022/04/16 07:37:34;;;;;;;11.32;6.72;;;;;;;20.61;nan;-24390.25;5031108;28;20202;-72
2022/04/16 07:39:59;;;;;;;10.70;7.05;;;;;;;20.86;nan;-24397.06;5032732;28;20289;-71
2022/04/16 07:42:26;;;;;;;10.60;6.88;;;;;;;20.97;nan;-24400.13;5031220;28;20204;-71
2022/04/16 07:44:52;;;;;;;13.48;7.15;;;;;;;20.72;nan;-24393.19;5032700;28;20168;-71
2022/04/16 07:47:17;;;;;;;10.35;6.90;;;;;;;19.95;nan;-24372.06;5033257;28;20261;-71
2022/04/16 07:49:43;;;;;;;12.35;7.55;;;;;;;20.65;nan;-24391.22;5032792;28;20649;-71
2022/04/16 07:52:08;;;;;;;10.45;6.15;;;;;;;20.69;nan;-24392.34;5033006;28;20219;-71
2022/04/16 07:54:34;;;;;;;8.82;5.60;;;;;;;20.86;nan;-24397.06;5030119;28;20215;-71
2022/04/16 07:56:59;;;;;;;13.32;6.20;;;;;;;21.26;nan;-24407.88;5030702;28;20168;-71
2022/04/16 07:59:25;;;;;;;7.55;6.28;;;;;;;21.13;nan;-24404.56;5033541;28;20262;-72
2022/04/16 08:01:50;;;;;;;19.10;9.20;;;;;;;21.08;nan;-24403.16;5033289;28;20179;-72
2022/04/16 08:04:15;;;;;;;19.20;10.05;;;;;;;20.89;nan;-24397.91;5033472;28;20619;-71
2022/04/16 08:06:41;;;;;;;21.35;9.13;;;;;;;21.74;nan;-24421.19;5033120;28;20205;-72
2022/04/16 08:09:06;;;;;;;20.67;9.23;;;;;;;21.42;nan;-24412.31;5033857;28;20179;-71
2022/04/16 08:11:33;;;;;;;18.90;8.52;;;;;;;21.38;nan;-24411.34;5033663;28;20164;-72
2022/04/16 08:13:58;;;;;;;14.32;7.30;;;;;;;21.56;nan;-24416.34;5033367;28;20640;-72
2022/04/16 08:16:24;;;;;;;12.48;6.97;;;;;;;21.49;nan;-24414.25;5033907;28;20631;-72
2022/04/16 08:18:49;;;;;;;12.35;7.80;;;;;;;21.96;nan;-24427.28;5033322;28;20357;-72
2022/04/16 08:21:15;;;;;;;16.08;6.88;;;;;;;21.57;nan;-24416.47;5030078;28;20213;-70
2022/04/16 08:23:54;;;;;;;12.60;5.70;;;;;;;21.93;nan;-24426.44;5031167;28;20179;-73
2022/04/16 08:26:20;;;;;;;10.95;6.72;;;;;;;21.91;nan;-24425.91;5032498;28;20536;-73
2022/04/16 08:28:46;;;;;;;11.73;6.70;;;;;;;21.85;nan;-24424.22;5032719;28;20180;-73
2022/04/16 08:31:12;;;;;;;12.85;6.32;;;;;;;21.45;nan;-24413.16;5033523;28;20693;-72
2022/04/16 08:33:37;;;;;;;10.13;6.43;;;;;;;20.99;nan;-24400.66;5030696;28;20175;-73
2022/04/16 08:36:03;;;;;;;12.13;6.47;;;;;;;21.18;nan;-24405.81;5032434;28;20171;-71
2022/04/16 08:38:28;;;;;;;14.20;6.63;;;;;;;21.24;nan;-24407.31;5031193;28;20190;-71
2022/04/16 08:40:55;;;;;;;12.82;5.60;;;;;;;21.69;nan;-24419.66;5032831;28;20665;-73
2022/04/16 08:43:20;;;;;;;11.63;6.10;;;;;;;21.84;nan;-24423.81;5033057;28;20634;-71
2022/04/16 08:45:49;;;;;;;13.95;6.72;;;;;;;22.24;nan;-24434.75;5032369;28;20195;-71
2022/04/16 08:48:15;;;;;;;11.32;6.85;;;;;;;22.33;nan;-24437.38;5032553;28;20556;-70
2022/04/16 08:50:42;;;;;;;11.02;7.38;;;;;;;22.78;nan;-24449.69;5028737;28;20559;-70
2022/04/16 08:53:08;;;;;;;14.30;6.72;;;;;;;23.10;nan;-24458.25;5014948;28;20226;-71
2022/04/16 08:55:33;;;;;;;12.25;6.45;;;;;;;22.79;nan;-24449.97;5032492;28;20289;-71
2022/04/16 08:57:59;;;;;;;10.98;6.93;;;;;;;23.43;nan;-24467.25;5032943;28;20639;-72
2022/04/16 09:00:25;;;;;;;12.65;6.65;;;;;;;23.56;nan;-24470.84;5032907;28;20225;-71
2022/04/16 09:02:56;;;;;;;16.27;7.00;;;;;;;23.99;nan;-24482.56;5032783;28;20557;-71
2022/04/16 09:05:23;;;;;;;15.43;8.07;;;;;;;24.36;nan;-24492.78;5032590;28;20167;-71
2022/04/16 09:07:51;;;;;;;8.75;6.30;;;;;;;24.88;nan;-24506.81;5032226;28;20273;-71
2022/04/16 09:10:17;;;;;;;11.77;6.32;;;;;;;25.04;nan;-24511.38;5032861;28;20217;-71
2022/04/16 09:12:44;;;;;;;13.45;6.47;;;;;;;25.53;nan;-24524.59;5032801;28;20179;-70
2022/04/16 09:15:12;;;;;;;9.55;5.90;;;;;;;25.18;nan;-24515.09;5032568;28;20281;-70
2022/04/16 09:17:39;;;;;;;13.80;6.30;;;;;;;24.92;nan;-24508.06;5032683;28;20175;-70
2022/04/16 09:20:12;;;;;;;12.27;6.10;;;;;;;24.97;nan;-24509.31;5032372;28;20210;-70
2022/04/16 09:22:40;;;;;;;14.07;6.43;;;;;;;25.29;nan;-24518.13;5032427;28;20179;-70
2022/04/16 09:25:19;;;;;;;14.02;5.63;;;;;;;25.33;nan;-24519.09;5032347;28;20236;-69
2022/04/16 09:27:47;;;;;;;11.15;5.32;;;;;;;25.50;nan;-24523.75;5030933;28;20194;-71
2022/04/16 09:30:21;;;;;;;9.10;5.20;;;;;;;25.38;nan;-24520.59;5031035;28;20164;-71
2022/04/16 09:32:46;;;;;;;9.13;5.22;;;;;;;25.75;nan;-24530.66;5031205;28;20175;-69
2022/04/16 09:35:24;;;;;;;7.97;4.80;;;;;;;25.33;nan;-24519.22;5032053;28;20252;-70
2022/04/16 09:37:53;;;;;;;8.38;5.60;;;;;;;25.12;nan;-24513.31;5031930;28;20176;-69
2022/04/16 09:40:18;;;;;;;14.70;5.40;;;;;;;25.53;nan;-24524.59;5032036;28;20225;-69
2022/04/16 09:42:51;;;;;;;10.30;5.30;;;;;;;25.65;nan;-24527.75;5031925;28;20175;-71
2022/04/16 09:45:17;;;;;;;13.10;5.10;;;;;;;25.79;nan;-24531.75;5031797;28;20226;-71
2022/04/16 09:47:44;;;;;;;8.23;5.20;;;;;;;25.76;nan;-24530.91;5031918;28;20176;-70
2022/04/16 09:50:11;;;;;;;10.45;5.57;;;;;;;25.96;nan;-24536.28;5031761;28;20306;-71
2022/04/16 09:52:37;;;;;;;8.52;5.30;;;;;;;25.88;nan;-24534.22;5031694;28;20223;-70
2022/04/16 09:55:04;;;;;;;10.73;5.22;;;;;;;25.95;nan;-24536.00;5031687;28;20293;-69
2022/04/16 09:57:31;;;;;;;13.43;5.50;;;;;;;25.98;nan;-24536.69;5031549;28;20172;-72
2022/04/16 09:59:58;;;;;;;10.27;5.70;;;;;;;26.11;nan;-24540.25;5031249;28;20646;-71
2022/04/16 10:02:25;;;;;;;8.20;5.47;;;;;;;25.79;nan;-24531.59;5030062;28;20182;-71
2022/04/16 10:04:51;;;;;;;13.38;5.75;;;;;;;25.97;nan;-24536.41;5030959;28;20182;-70
2022/04/16 10:07:16;;;;;;;9.82;5.75;;;;;;;25.87;nan;-24533.81;5045212;28;20234;-73
2022/04/16 10:09:42;;;;;;;10.20;5.90;;;;;;;26.49;nan;-24550.56;5030314;28;20655;-72
2022/04/16 10:14:58;;;;;;;12.35;6.00;;;;;;;26.65;nan;-24554.97;5030878;28;20202;-71
2022/04/16 10:17:26;;;;;;;8.90;5.53;;;;;;;26.18;nan;-24542.19;5029550;28;20226;-72
2022/04/16 10:19:54;;;;;;;10.57;5.40;;;;;;;26.64;nan;-24554.69;5030515;28;20179;-70
2022/04/16 10:22:27;;;;;;;13.68;5.68;;;;;;;27.01;nan;-24564.84;5029777;28;20191;-70
2022/04/16 10:24:57;;;;;;;11.15;5.15;;;;;;;26.78;nan;-24558.53;5026629;28;20171;-71
2022/04/16 10:27:29;;;;;;;13.88;5.60;;;;;;;26.34;nan;-24546.59;5033224;28;20182;-70
2022/04/16 10:30:00;;;;;;;13.65;4.90;;;;;;;26.23;nan;-24543.69;5046255;28;20194;-70
2022/04/16 10:32:46;;;;;;;8.15;5.70;;;;;;;26.38;nan;-24547.81;5041431;28;20206;-70
2022/04/16 10:35:14;;;;;;;12.70;5.70;;;;;;;26.72;nan;-24556.88;5028962;28;20277;-71
2022/04/16 10:37:42;;;;;;;8.85;5.60;;;;;;;26.70;nan;-24556.47;5030640;28;20646;-70
2022/04/16 10:40:22;;;;;;;9.38;5.20;;;;;;;27.12;nan;-24567.84;5044845;28;20281;-70
2022/04/16 10:42:50;;;;;;;8.32;6.05;;;;;;;27.22;nan;-24570.59;5028971;28;20179;-70
2022/04/16 10:45:17;;;;;;;10.73;5.00;;;;;;;27.41;nan;-24575.53;5029514;28;20286;-70
2022/04/16 10:47:43;;;;;;;9.55;5.13;;;;;;;27.42;nan;-24575.94;5030004;28;20171;-70
2022/04/16 10:50:19;;;;;;;12.18;5.47;;;;;;;27.02;nan;-24565.13;5029586;28;20886;-71
2022/04/16 10:52:59;;;;;;;33.55;5.93;;;;;;;26.90;nan;-24561.81;5028734;28;20309;-70
2022/04/16 10:55:31;;;;;;;7.07;4.55;;;;;;;27.21;nan;-24570.31;5022706;28;20194;-71
2022/04/16 10:57:58;;;;;;;9.63;5.60;;;;;;;26.76;nan;-24557.97;5027048;28;20188;-72
2022/04/16 11:00:46;;;;;;;10.32;4.40;;;;;;;25.79;nan;-24531.59;5028712;28;20654;-71
2022/04/16 11:03:11;;;;;;;7.15;4.78;;;;;;;26.06;nan;-24539.03;5028180;28;20172;-72
2022/04/16 11:05:37;;;;;;;8.40;5.25;;;;;;;25.26;nan;-24517.28;5030211;28;20225;-70
2022/04/16 11:08:04;;;;;;;11.23;5.00;;;;;;;25.35;nan;-24519.63;5030110;28;20659;-69
2022/04/16 11:10:29;;;;;;;10.02;6.05;;;;;;;25.64;nan;-24527.47;5030230;28;20183;-70
2022/04/16 11:12:57;;;;;;;10.68;5.47;;;;;;;25.67;nan;-24528.31;5030100;28;20674;-70
2022/04/16 11:15:24;;;;;;;10.05;5.55;;;;;;;25.80;nan;-24532.00;5029594;28;20207;-71
2022/04/16 11:17:57;;;;;;;8.98;5.18;;;;;;;25.40;nan;-24521.16;5029397;28;20218;-70
2022/04/16 11:20:23;;;;;;;9.88;4.97;;;;;;;24.93;nan;-24508.22;5029439;28;20184;-70
2022/04/16 11:22:49;;;;;;;12.70;5.30;;;;;;;24.91;nan;-24507.66;5027929;28;20258;-71
2022/04/16 11:25:14;;;;;;;6.60;4.80;;;;;;;24.93;nan;-24508.22;5030357;28;20599;-70
2022/04/16 11:35:57;;;;;;;7.18;4.82;;;;;;;24.44;nan;-24494.84;5033764;28;20202;-71
2022/04/16 11:38:30;;;;;;;6.82;5.15;;;;;;;24.95;nan;-24508.91;5034373;28;20182;-71
2022/04/16 11:40:57;;;;;;;8.85;4.80;;;;;;;24.92;nan;-24507.94;5034219;28;20260;-71
2022/04/16 11:43:28;;;;;;;10.50;4.63;;;;;;;25.00;nan;-24510.13;5034328;28;20246;-72
2022/04/16 11:45:57;;;;;;;9.77;5.00;;;;;;;25.25;nan;-24517.00;5034158;28;20226;-69
2022/04/16 11:48:23;;;;;;;7.75;4.90;;;;;;;25.49;nan;-24523.47;5031909;28;20167;-70
2022/04/16 11:50:48;;;;;;;7.25;4.43;;;;;;;25.49;nan;-24523.47;5033045;28;20680;-70
2022/04/16 11:53:14;;;;;;;7.55;4.57;;;;;;;25.65;nan;-24527.88;5034363;28;20223;-69
2022/04/16 11:55:48;;;;;;;7.47;4.70;;;;;;;25.30;nan;-24518.41;5034250;28;20253;-70